Map

Track Data

SID SEASON NUMBER BASIN SUBBASIN NAME ISO_TIME NATURE LAT LON WMO_WIND WMO_PRES WMO_AGENCY TRACK_TYPE DIST2LAND LANDFALL IFLAG USA_AGENCY USA_ATCF_ID USA_LAT USA_LON USA_RECORD USA_STATUS USA_WIND USA_PRES USA_SSHS USA_R34_NE USA_R34_SE USA_R34_SW USA_R34_NW USA_R50_NE USA_R50_SE USA_R50_SW USA_R50_NW USA_R64_NE USA_R64_SE USA_R64_SW USA_R64_NW USA_POCI USA_ROCI USA_RMW USA_EYE TOKYO_LAT TOKYO_LON TOKYO_GRADE TOKYO_WIND TOKYO_PRES TOKYO_R50_DIR TOKYO_R50_LONG TOKYO_R50_SHORT TOKYO_R30_DIR TOKYO_R30_LONG TOKYO_R30_SHORT TOKYO_LAND CMA_LAT CMA_LON CMA_CAT CMA_WIND CMA_PRES HKO_LAT HKO_LON HKO_CAT HKO_WIND HKO_PRES NEWDELHI_LAT NEWDELHI_LON NEWDELHI_GRADE NEWDELHI_WIND NEWDELHI_PRES NEWDELHI_CI NEWDELHI_DP NEWDELHI_POCI REUNION_LAT REUNION_LON REUNION_TYPE REUNION_WIND REUNION_PRES REUNION_TNUM REUNION_CI REUNION_RMW REUNION_R34_NE REUNION_R34_SE REUNION_R34_SW REUNION_R34_NW REUNION_R50_NE REUNION_R50_SE REUNION_R50_SW REUNION_R50_NW REUNION_R64_NE REUNION_R64_SE REUNION_R64_SW REUNION_R64_NW BOM_LAT BOM_LON BOM_TYPE BOM_WIND BOM_PRES BOM_TNUM BOM_CI BOM_RMW BOM_R34_NE BOM_R34_SE BOM_R34_SW BOM_R34_NW BOM_R50_NE BOM_R50_SE BOM_R50_SW BOM_R50_NW BOM_R64_NE BOM_R64_SE BOM_R64_SW BOM_R64_NW BOM_ROCI BOM_POCI BOM_EYE BOM_POS_METHOD BOM_PRES_METHOD NADI_LAT NADI_LON NADI_CAT NADI_WIND NADI_PRES WELLINGTON_LAT WELLINGTON_LON WELLINGTON_WIND WELLINGTON_PRES DS824_LAT DS824_LON DS824_STAGE DS824_WIND DS824_PRES TD9636_LAT TD9636_LON TD9636_STAGE TD9636_WIND TD9636_PRES TD9635_LAT TD9635_LON TD9635_WIND TD9635_PRES TD9635_ROCI NEUMANN_LAT NEUMANN_LON NEUMANN_CLASS NEUMANN_WIND NEUMANN_PRES MLC_LAT MLC_LON MLC_CLASS MLC_WIND MLC_PRES USA_GUST BOM_GUST BOM_GUST_PER REUNION_GUST REUNION_GUST_PER USA_SEAHGT USA_SEARAD_NE USA_SEARAD_SE USA_SEARAD_SW USA_SEARAD_NW STORM_SPEED STORM_DIR
1951008S07074 1951 3 SI MM NOT_NAMED 1951-01-08 06:00:00 TS -7.00000 74.1000 main 1611 1611 O________OO___ jtwc_sh SH081951 -7.00000 74.1000 -1 -7.00000 74.1000 TC 25 -7.00000 74.1000 7 1 203
1951008S07074 1951 3 SI MM NOT_NAMED 1951-01-08 09:00:00 TS -7.05146 74.0990 main 1621 1621 P________PP___ SH081951 -7.04750 74.1125 -1 -7.04750 74.1125 TC 25 -7.05938 74.0719 7 1 0
1951008S07074 1951 3 SI MM NOT_NAMED 1951-01-08 12:00:00 TS -7.10500 74.0817 main 1621 1621 O________OP___ jtwc_sh SH081951 -7.10000 74.1000 -1 -7.10000 74.1000 TC 25 -7.11501 74.0450 7 1 205
1951008S07074 1951 3 SI MM NOT_NAMED 1951-01-08 15:00:00 TS -7.15938 74.0402 main 1636 1636 P________PP___ SH081951 -7.15750 74.0500 -1 -7.15750 74.0500 TC 30 -7.16313 74.0206 7 1 221
1951008S07074 1951 3 SI MM NOT_NAMED 1951-01-08 18:00:00 TS -7.20000 74.0000 main 1636 1636 O________OO___ jtwc_sh SH081951 -7.20000 74.0000 -1 -7.20000 74.0000 TC 35 -7.20000 74.0000 2 1 225
1951008S07074 1951 3 SI MM NOT_NAMED 1951-01-08 21:00:00 TS -7.20802 73.9944 main 1636 1636 P________PP___ SH081951 -7.20000 74.0000 -1 -7.20000 74.0000 TC 35 -7.22406 73.9831 2 0 0
1951008S07074 1951 3 SI MM NOT_NAMED 1951-01-09 00:00:00 TS -7.21416 73.9883 main 1636 1636 O________OP___ jtwc_sh SH081951 -7.20000 74.0000 -1 -7.20000 74.0000 TC 35 -7.24249 73.9650 2 1 222
1951008S07074 1951 3 SI MM NOT_NAMED 1951-01-09 03:00:00 TS -7.24989 73.9515 main 1636 1636 P________PP___ SH081951 -7.24250 73.9575 -1 -7.24250 73.9575 TC 35 -7.26468 73.9394 2 1 227
1951008S07074 1951 3 SI MM NOT_NAMED 1951-01-09 06:00:00 TS -7.30000 73.9000 main 1651 1651 O________OO___ jtwc_sh SH081951 -7.30000 73.9000 -1 -7.30000 73.9000 TC 35 -7.30000 73.9000 2 1 224
1951008S07074 1951 3 SI MM NOT_NAMED 1951-01-09 09:00:00 TS -7.34854 73.8501 main 1651 1651 P________PP___ SH081951 -7.34250 73.8575 -1 -7.34250 73.8575 TC 35 -7.36063 73.8353 2 2 225
1951008S07074 1951 3 SI MM NOT_NAMED 1951-01-09 12:00:00 TS -7.41167 73.7858 main 1666 1666 O________OP___ jtwc_sh SH081951 -7.40000 73.8000 -1 -7.40000 73.8000 TC 35 -7.43501 73.7575 2 2 225
1951008S07074 1951 3 SI MM NOT_NAMED 1951-01-09 15:00:00 TS -7.50563 73.6920 main 1680 1680 P________PP___ SH081951 -7.50001 73.7000 -1 -7.50001 73.7000 TC 35 -7.51688 73.6759 2 3 225
1951008S07074 1951 3 SI MM NOT_NAMED 1951-01-09 18:00:00 TS -7.60000 73.6000 main 1695 1695 O________OO___ jtwc_sh SH081951 -7.60000 73.6000 -1 -7.60000 73.6000 TC 35 -7.60000 73.6000 2 2 224
1951008S07074 1951 3 SI MM NOT_NAMED 1951-01-09 21:00:00 TS -7.65833 73.5426 main 1710 1710 P________PP___ SH081951 -7.65000 73.5425 -1 -7.65000 73.5425 TC 35 -7.67499 73.5428 2 2 223
1951008S07074 1951 3 SI MM NOT_NAMED 1951-01-10 00:00:00 TS -7.71666 73.4975 main 1710 1710 O________OP___ jtwc_sh SH081951 -7.70000 73.5000 -1 -7.70000 73.5000 TC 35 -7.74999 73.4925 2 2 212
1951008S07074 1951 3 SI MM NOT_NAMED 1951-01-10 03:00:00 TS -7.80833 73.4486 main 1725 1725 P________PP___ SH081951 -7.80000 73.4500 -1 -7.80000 73.4500 TC 35 -7.82499 73.4459 2 2 207
1951008S07074 1951 3 SI MM NOT_NAMED 1951-01-10 06:00:00 TS -7.90000 73.4000 main 1735 1735 O________OO___ jtwc_sh SH081951 -7.90000 73.4000 -1 -7.90000 73.4000 TC 35 -7.90000 73.4000 2 2 213
1951008S07074 1951 3 SI MM NOT_NAMED 1951-01-10 09:00:00 TS -7.95969 73.3486 main 1750 1750 P________PP___ SH081951 -7.95000 73.3500 -1 -7.95000 73.3500 TC 35 -7.97906 73.3459 2 2 221
1951008S07074 1951 3 SI MM NOT_NAMED 1951-01-10 12:00:00 TS -8.01917 73.2975 main 1750 1750 O________OP___ jtwc_sh SH081951 -8.00000 73.3000 -1 -8.00000 73.3000 TC 35 -8.05750 73.2925 2 2 214
1951008S07074 1951 3 SI MM NOT_NAMED 1951-01-10 15:00:00 TS -8.11073 73.2476 main 1765 1765 P________PP___ SH081951 -8.10000 73.2500 -1 -8.10000 73.2500 TC 35 -8.13219 73.2428 2 2 208
1951008S07074 1951 3 SI MM NOT_NAMED 1951-01-10 18:00:00 TS -8.20000 73.2000 main 1775 1775 O________OO___ jtwc_sh SH081951 -8.20000 73.2000 -1 -8.20000 73.2000 TC 35 -8.20000 73.2000 2 2 213
1951008S07074 1951 3 SI MM NOT_NAMED 1951-01-10 21:00:00 TS -8.25198 73.1550 main 1785 1785 P________PP___ SH081951 -8.25750 73.1425 -1 -8.25750 73.1425 TC 35 -8.24092 73.1800 2 1 219
1951008S07074 1951 3 SI MM NOT_NAMED 1951-01-11 00:00:00 TS -8.29249 73.1216 main 1790 1790 O________OP___ jtwc_sh SH081951 -8.30000 73.1000 -1 -8.30000 73.1000 TC 35 -8.27748 73.1649 2 1 206
1951008S07074 1951 3 SI MM NOT_NAMED 1951-01-11 03:00:00 TS -8.33176 73.1191 main 1790 1790 P________PP___ SH081951 -8.33500 73.1075 -1 -8.33500 73.1075 TC 35 -8.32529 73.1424 2 1 0
1951008S07074 1951 3 SI MM NOT_NAMED 1951-01-11 06:00:00 TS -8.40000 73.1000 main 1800 1800 O________OO___ jtwc_sh SH081951 -8.40000 73.1000 -1 -8.40000 73.1000 TC 35 -8.40000 73.1000 2 2 208
1951008S07074 1951 3 SI MM NOT_NAMED 1951-01-11 09:00:00 TS -8.53179 73.0132 main 1815 1815 P________PP___ SH081951 -8.53501 73.0150 -1 -8.53501 73.0150 TC 35 -8.52534 73.0094 2 4 214
1951008S07074 1951 3 SI MM NOT_NAMED 1951-01-11 12:00:00 TS -8.69252 72.9000 main 1840 1840 O________OP___ jtwc_sh SH081951 -8.70000 72.9000 -1 -8.70000 72.9000 TC 35 -8.67754 72.9001 2 4 215
1951008S07074 1951 3 SI MM NOT_NAMED 1951-01-11 15:00:00 TS -8.84699 72.7869 main 1855 1855 P________PP___ SH081951 -8.85000 72.7850 -1 -8.85000 72.7850 TC 35 -8.84097 72.7907 2 4 213
1951008S07074 1951 3 SI MM NOT_NAMED 1951-01-11 18:00:00 TS -9.00000 72.7000 main 1880 1880 O________OO___ jtwc_sh SH081951 -9.00000 72.7000 -1 -9.00000 72.7000 TC 35 -9.00000 72.7000 2 3 199
1951008S07074 1951 3 SI MM NOT_NAMED 1951-01-11 21:00:00 TS -9.15176 72.6808 main 1900 1900 P________PP___ SH081951 -9.15749 72.6925 -1 -9.15749 72.6925 TC 35 -9.14029 72.6574 2 3 0
1951008S07074 1951 3 SI MM NOT_NAMED 1951-01-12 00:00:00 TS -9.29082 72.6783 main 1910 1910 O________OP___ jtwc_sh SH081951 -9.30000 72.7000 -1 -9.30000 72.7000 TC 35 -9.27247 72.6349 2 3 189
1951008S07074 1951 3 SI MM NOT_NAMED 1951-01-12 03:00:00 TS -9.40781 72.6450 main 1925 1925 P________PP___ SH081951 -9.41500 72.6575 -1 -9.41500 72.6575 TC 35 -9.39342 72.6200 2 2 201
1951008S07074 1951 3 SI MM NOT_NAMED 1951-01-12 06:00:00 TS -9.50000 72.6000 main 1935 1935 O________OO___ jtwc_sh SH081951 -9.50000 72.6000 -1 -9.50000 72.6000 TC 35 -9.50000 72.6000 2 2 210
1951008S07074 1951 3 SI MM NOT_NAMED 1951-01-12 09:00:00 TS -9.56177 72.5510 main 1945 1945 P________PP___ SH081951 -9.55000 72.5500 -1 -9.55000 72.5500 TC 35 -9.58532 72.5531 2 2 219
1951008S07074 1951 3 SI MM NOT_NAMED 1951-01-12 12:00:00 TS -9.61917 72.5000 main 1950 1950 O________OP___ jtwc_sh SH081951 -9.60000 72.5000 -1 -9.60000 72.5000 TC 35 -9.65751 72.5000 2 2 217
1951008S07074 1951 3 SI MM NOT_NAMED 1951-01-12 15:00:00 TS -9.70365 72.4440 main 1960 1953 P________PP___ SH081951 -9.69250 72.4425 -1 -9.69250 72.4425 TC 35 -9.72594 72.4469 2 2 208
1951008S07074 1951 3 SI MM NOT_NAMED 1951-01-12 18:00:00 TS -9.80000 72.4000 main 1953 1946 O________OO___ jtwc_sh SH081951 -9.80000 72.4000 -1 -9.80000 72.4000 TC 35 -9.80000 72.4000 2 2 196
1951008S07074 1951 3 SI MM NOT_NAMED 1951-01-12 21:00:00 TS -9.89760 72.3920 main 1946 1939 P________PP___ SH081951 -9.90000 72.4000 -1 -9.90000 72.4000 TC 35 -9.89280 72.3759 2 2 183
1951008S07074 1951 3 SI MM NOT_NAMED 1951-01-13 00:00:00 TS -9.99749 72.3858 main 1939 1933 O________OP___ jtwc_sh SH081951 -10.0000 72.4000 -1 -10.0000 72.4000 TC 35 -9.99248 72.3575 2 2 192
1951008S07074 1951 3 SI MM NOT_NAMED 1951-01-13 03:00:00 TS -10.0986 72.3501 main 1933 1917 P________PP___ SH081951 -10.1000 72.3575 -1 -10.1000 72.3575 TC 35 -10.0959 72.3353 2 2 203
1951008S07074 1951 3 SI MM NOT_NAMED 1951-01-13 06:00:00 TS -10.2000 72.3000 main 1917 1910 O________OO___ jtwc_sh SH081951 -10.2000 72.3000 -1 -10.2000 72.3000 TC 35 -10.2000 72.3000 2 2 206
1951008S07074 1951 3 SI MM NOT_NAMED 1951-01-13 09:00:00 TS -10.2973 72.2501 main 1910 1895 P________PP___ SH081951 -10.3000 72.2575 -1 -10.3000 72.2575 TC 35 -10.2919 72.2353 2 2 209
1951008S07074 1951 3 SI MM NOT_NAMED 1951-01-13 12:00:00 TS -10.3950 72.1858 main 1895 1879 O________OP___ jtwc_sh SH081951 -10.4000 72.2000 -1 -10.4000 72.2000 TC 35 -10.3850 72.1575 2 2 219
1951008S07074 1951 3 SI MM NOT_NAMED 1951-01-13 15:00:00 TS -10.4902 72.0920 main 1879 1864 P________PP___ SH081951 -10.4925 72.1000 -1 -10.4925 72.1000 TC 35 -10.4856 72.0759 2 3 222
1951008S07074 1951 3 SI MM NOT_NAMED 1951-01-13 18:00:00 TS -10.6000 72.0000 main 1864 1849 O________OO___ jtwc_sh SH081951 -10.6000 72.0000 -1 -10.6000 72.0000 TC 35 -10.6000 72.0000 2 3 210
1951008S07074 1951 3 SI MM NOT_NAMED 1951-01-13 21:00:00 TS -10.7443 71.9426 main 1849 1835 P________PP___ SH081951 -10.7425 71.9425 -1 -10.7425 71.9425 TC 35 -10.7478 71.9428 2 3 197
1951008S07074 1951 3 SI MM NOT_NAMED 1951-01-14 00:00:00 TS -10.9025 71.8975 main 1835 1822 O________OP___ jtwc_sh SH081951 -10.9000 71.9000 -1 -10.9000 71.9000 TC 35 -10.9075 71.8925 2 3 196
1951008S07074 1951 3 SI MM NOT_NAMED 1951-01-14 03:00:00 TS -11.0645 71.8487 main 1813 1807 P________PP___ SH081951 -11.0650 71.8500 -1 -11.0650 71.8500 TC 35 -11.0634 71.8459 2 3 199
1951008S07074 1951 3 SI MM NOT_NAMED 1951-01-14 06:00:00 TS -11.2000 71.8000 main 1807 1800 O________OO___ jtwc_sh SH081951 -11.2000 71.8000 -1 -11.2000 71.8000 TC 35 -11.2000 71.8000 2 2 205
1951008S07074 1951 3 SI MM NOT_NAMED 1951-01-14 09:00:00 TS -11.2678 71.7513 main 1800 1792 P________PP___ SH081951 -11.2575 71.7500 -1 -11.2575 71.7500 TC 35 -11.2884 71.7540 2 2 219
1951008S07074 1951 3 SI MM NOT_NAMED 1951-01-14 12:00:00 TS -11.3192 71.7025 main 1792 1785 O________OP___ jtwc_sh SH081951 -11.3000 71.7000 -1 -11.3000 71.7000 TC 35 -11.3575 71.7074 2 2 217
1951008S07074 1951 3 SI MM NOT_NAMED 1951-01-14 15:00:00 TS -11.4026 71.6524 main 1785 1770 P________PP___ SH081951 -11.3925 71.6500 -1 -11.3925 71.6500 TC 35 -11.4228 71.6571 2 2 208
1951008S07074 1951 3 SI MM NOT_NAMED 1951-01-14 18:00:00 TS -11.5000 71.6000 main 1770 1754 O________OO___ jtwc_sh SH081951 -11.5000 71.6000 -1 -11.5000 71.6000 TC 35 -11.5000 71.6000 2 2 209
1951008S07074 1951 3 SI MM NOT_NAMED 1951-01-14 21:00:00 TS -11.5985 71.5463 main 1754 1748 P________PP___ SH081951 -11.5925 71.5575 -1 -11.5925 71.5575 TC 35 -11.6106 71.5241 2 2 210
1951008S07074 1951 3 SI MM NOT_NAMED 1951-01-15 00:00:00 TS -11.7117 71.4809 main 1748 1733 O________OP___ jtwc_sh SH081951 -11.7000 71.5000 -1 -11.7000 71.5000 TC 35 -11.7350 71.4426 2 3 212
1951008S07074 1951 3 SI MM NOT_NAMED 1951-01-15 03:00:00 TS -11.8506 71.3883 main 1727 1711 P________PP___ SH081951 -11.8425 71.4000 -1 -11.8425 71.4000 TC 35 -11.8669 71.3647 2 3 211
1951008S07074 1951 3 SI MM NOT_NAMED 1951-01-15 06:00:00 TS -12.0000 71.3000 main 1711 1696 O________OO___ jtwc_sh SH081951 -12.0000 71.3000 -1 -12.0000 71.3000 TC 35 -12.0000 71.3000 2 3 205
1951008S07074 1951 3 SI MM NOT_NAMED 1951-01-15 09:00:00 TS -12.1480 71.2449 main 1696 1684 P________PP___ SH081951 -12.1575 71.2350 -1 -12.1575 71.2350 TC 35 -12.1290 71.2646 2 3 197
1951008S07074 1951 3 SI MM NOT_NAMED 1951-01-15 12:00:00 TS -12.2858 71.2141 main 1684 1678 O________OP___ jtwc_sh SH081951 -12.3000 71.2000 -1 -12.3000 71.2000 TC 35 -12.2575 71.2424 2 3 188
1951008S07074 1951 3 SI MM NOT_NAMED 1951-01-15 15:00:00 TS -12.3991 71.2080 main 1678 1672 P________PP___ SH081951 -12.4075 71.2000 -1 -12.4075 71.2000 TC 35 -12.3822 71.2240 2 2 0
1951008S07074 1951 3 SI MM NOT_NAMED 1951-01-15 18:00:00 TS -12.5000 71.2000 main 1672 1666 O________OO___ jtwc_sh SH081951 -12.5000 71.2000 -1 -12.5000 71.2000 TC 35 -12.5000 71.2000 2 2 188
1951008S07074 1951 3 SI MM NOT_NAMED 1951-01-15 21:00:00 TS -12.6024 71.1587 main 1666 1651 P________PP___ SH081951 -12.6000 71.1575 -1 -12.6000 71.1575 TC 35 -12.6072 71.1612 2 2 203
1951008S07074 1951 3 SI MM NOT_NAMED 1951-01-16 00:00:00 TS -12.7025 71.1050 main 1651 1645 O________OP___ jtwc_sh SH081951 -12.7000 71.1000 -1 -12.7000 71.1000 TC 35 -12.7075 71.1150 2 2 207
1951008S07074 1951 3 SI MM NOT_NAMED 1951-01-16 03:00:00 TS -12.8014 71.0537 main 1645 1630 P________PP___ SH081951 -12.8000 71.0500 -1 -12.8000 71.0500 TC 35 -12.8041 71.0612 2 2 208
1951008S07074 1951 3 SI MM NOT_NAMED 1951-01-16 06:00:00 TS -12.9000 71.0000 main 1630 1614 O________OO___ jtwc_sh SH081951 -12.9000 71.0000 -1 -12.9000 71.0000 TC 35 -12.9000 71.0000 2 2 208
1951008S07074 1951 3 SI MM NOT_NAMED 1951-01-16 09:00:00 TS -12.9986 70.9464 main 1614 1609 P________PP___ SH081951 -13.0000 70.9575 -1 -13.0000 70.9575 TC 35 -12.9960 70.9241 2 2 211
1951008S07074 1951 3 SI MM NOT_NAMED 1951-01-16 12:00:00 TS -13.0975 70.8808 main 1609 1594 O________OP___ jtwc_sh SH081951 -13.1000 70.9000 -1 -13.1000 70.9000 TC 35 -13.0925 70.8425 2 3 217
1951008S07074 1951 3 SI MM NOT_NAMED 1951-01-16 15:00:00 TS -13.1976 70.7882 main 1594 1579 P________PP___ SH081951 -13.2000 70.8000 -1 -13.2000 70.8000 TC 35 -13.1928 70.7647 2 3 221
1951008S07074 1951 3 SI MM NOT_NAMED 1951-01-16 18:00:00 TS -13.3000 70.7000 main 1579 1564 O________OO___ jtwc_sh SH081951 -13.3000 70.7000 -1 -13.3000 70.7000 TC 35 -13.3000 70.7000 2 2 214
1951008S07074 1951 3 SI MM NOT_NAMED 1951-01-16 21:00:00 TS -13.4009 70.6462 main 1564 1558 P________PP___ SH081951 -13.3925 70.6350 -1 -13.3925 70.6350 TC 35 -13.4178 70.6687 2 2 200
1951008S07074 1951 3 SI MM NOT_NAMED 1951-01-17 00:00:00 TS -13.5142 70.6166 main 1558 1552 O________OP___ jtwc_sh SH081951 -13.5000 70.6000 -1 -13.5000 70.6000 TC 35 -13.5425 70.6499 2 3 189
1951008S07074 1951 3 SI MM NOT_NAMED 1951-01-17 03:00:00 TS -13.6570 70.6154 main 1547 1541 P________PP___ SH081951 -13.6500 70.6075 -1 -13.6500 70.6075 TC 35 -13.6709 70.6312 2 3 0
1951008S07074 1951 3 SI MM NOT_NAMED 1951-01-17 06:00:00 TS -13.8000 70.6000 main 1541 1527 O________OO___ jtwc_sh SH081951 -13.8000 70.6000 -1 -13.8000 70.6000 TC 35 -13.8000 70.6000 2 3 201
1951008S07074 1951 3 SI MM NOT_NAMED 1951-01-17 09:00:00 TS -13.9097 70.5154 main 1527 1512 P________PP___ SH081951 -13.9000 70.5075 -1 -13.9000 70.5075 TC 35 -13.9291 70.5313 2 3 219
1951008S07074 1951 3 SI MM NOT_NAMED 1951-01-17 12:00:00 TS -14.0192 70.4167 main 1512 1491 O________OP___ jtwc_sh SH081951 -14.0000 70.4000 -1 -14.0000 70.4000 TC 35 -14.0575 70.4501 2 3 213
1951008S07074 1951 3 SI MM NOT_NAMED 1951-01-17 15:00:00 TS -14.1607 70.3463 main 1491 1486 P________PP___ SH081951 -14.1500 70.3350 -1 -14.1500 70.3350 TC 35 -14.1822 70.3688 2 3 201
1951008S07074 1951 3 SI MM NOT_NAMED 1951-01-17 18:00:00 TS -14.3000 70.3000 main 1486 1481 O________OO___ jtwc_sh SH081951 -14.3000 70.3000 -1 -14.3000 70.3000 TC 35 -14.3000 70.3000 2 3 191
1951008S07074 1951 3 SI MM NOT_NAMED 1951-01-17 21:00:00 TS -14.4060 70.2882 main 1481 1475 P________PP___ SH081951 -14.4075 70.3000 -1 -14.4075 70.3000 TC 35 -14.4031 70.2646 2 2 188
1951008S07074 1951 3 SI MM NOT_NAMED 1951-01-18 00:00:00 TS -14.5000 70.2808 main 1475 1461 O________OP___ jtwc_sh SH081951 -14.5000 70.3000 -1 -14.5000 70.3000 TC 35 -14.5000 70.2424 2 2 193
1951008S07074 1951 3 SI MM NOT_NAMED 1951-01-18 03:00:00 TS -14.5990 70.2463 main 1461 1456 P________PP___ SH081951 -14.6000 70.2575 -1 -14.6000 70.2575 TC 35 -14.5969 70.2240 2 2 203
1951008S07074 1951 3 SI MM NOT_NAMED 1951-01-18 06:00:00 TS -14.7000 70.2000 main 1456 1450 O________OO___ jtwc_sh SH081951 -14.7000 70.2000 -1 -14.7000 70.2000 TC 35 -14.7000 70.2000 2 2 204
1951008S07074 1951 3 SI MM NOT_NAMED 1951-01-18 09:00:00 TS -14.8036 70.1510 main 1450 1436 P________PP___ SH081951 -14.7925 70.1500 -1 -14.7925 70.1500 TC 35 -14.8259 70.1532 2 2 204
1951008S07074 1951 3 SI MM NOT_NAMED 1951-01-18 12:00:00 TS -14.9192 70.1000 main 1436 1416 O________OP___ jtwc_sh SH081951 -14.9000 70.1000 -1 -14.9000 70.1000 TC 35 -14.9575 70.1000 2 3 201
1951008S07074 1951 3 SI MM NOT_NAMED 1951-01-18 15:00:00 TS -15.0668 70.0440 main 1416 1411 P________PP___ SH081951 -15.0575 70.0425 -1 -15.0575 70.0425 TC 35 -15.0853 70.0469 2 3 198
1951008S07074 1951 3 SI MM NOT_NAMED 1951-01-18 18:00:00 TS -15.2000 70.0000 main 1411 1407 O________OO___ jtwc_sh SH081951 -15.2000 70.0000 -1 -15.2000 70.0000 TC 35 -15.2000 70.0000 2 2 195
1951008S07074 1951 3 SI MM NOT_NAMED 1951-01-18 21:00:00 TS -15.2654 69.9919 main 1407 1407 P________PP___ SH081951 -15.2575 70.0000 -1 -15.2575 70.0000 TC 35 -15.2812 69.9759 2 1 191
1951008S07074 1951 3 SI MM NOT_NAMED 1951-01-19 00:00:00 TS -15.3167 69.9858 main 1407 1402 O________OP___ jtwc_sh SH081951 -15.3000 70.0000 -1 -15.3000 70.0000 TC 35 -15.3500 69.9574 2 1 198
1951008S07074 1951 3 SI MM NOT_NAMED 1951-01-19 03:00:00 TS -15.4012 69.9501 main 1402 1387 P________PP___ SH081951 -15.3925 69.9575 -1 -15.3925 69.9575 TC 35 -15.4187 69.9352 2 2 202
1951008S07074 1951 3 SI MM NOT_NAMED 1951-01-19 06:00:00 TS -15.5000 69.9000 main 1387 1383 O________OO___ jtwc_sh SH081951 -15.5000 69.9000 -1 -15.5000 69.9000 TC 35 -15.5000 69.9000 2 2 206
1951008S07074 1951 3 SI MM NOT_NAMED 1951-01-19 09:00:00 TS -15.5999 69.8501 main 1383 1368 P________PP___ SH081951 -15.5925 69.8575 -1 -15.5925 69.8575 TC 35 -15.6147 69.8354 2 2 207
1951008S07074 1951 3 SI MM NOT_NAMED 1951-01-19 12:00:00 TS -15.7142 69.7859 main 1368 1354 O________OP___ jtwc_sh SH081951 -15.7000 69.8000 -1 -15.7000 69.8000 TC 35 -15.7425 69.7576 2 3 211
1951008S07074 1951 3 SI MM NOT_NAMED 1951-01-19 15:00:00 TS -15.8580 69.6920 main 1350 1336 P________PP___ SH081951 -15.8500 69.7000 -1 -15.8500 69.7000 TC 35 -15.8741 69.6760 2 3 212
1951008S07074 1951 3 SI MM NOT_NAMED 1951-01-19 18:00:00 TS -16.0000 69.6000 main 1336 1321 O________OO___ jtwc_sh SH081951 -16.0000 69.6000 -1 -16.0000 69.6000 TC 35 -16.0000 69.6000 2 3 210
1951008S07074 1951 3 SI MM NOT_NAMED 1951-01-19 21:00:00 TS -16.1047 69.5426 main 1321 1317 P________PP___ SH081951 -16.1075 69.5425 -1 -16.1075 69.5425 TC 35 -16.0990 69.5428 2 2 206
1951008S07074 1951 3 SI MM NOT_NAMED 1951-01-20 00:00:00 TS -16.1975 69.4975 main 1317 1313 O________OP___ jtwc_sh SH081951 -16.2000 69.5000 -1 -16.2000 69.5000 TC 35 -16.1925 69.4924 2 2 205
1951008S07074 1951 3 SI MM NOT_NAMED 1951-01-20 03:00:00 TS -16.2916 69.4486 main 1303 1299 P________PP___ SH081951 -16.2925 69.4500 -1 -16.2925 69.4500 TC 35 -16.2897 69.4459 2 2 205
1951008S07074 1951 3 SI MM NOT_NAMED 1951-01-20 06:00:00 TS -16.4000 69.4000 main 1299 1295 O________OO___ jtwc_sh SH081951 -16.4000 69.4000 -1 -16.4000 69.4000 TC 35 -16.4000 69.4000 2 3 201
1951008S07074 1951 3 SI MM NOT_NAMED 1951-01-20 09:00:00 TS -16.5416 69.3500 main 1295 1277 P________PP___ SH081951 -16.5425 69.3500 -1 -16.5425 69.3500 TC 35 -16.5397 69.3500 2 3 199
1951008S07074 1951 3 SI MM NOT_NAMED 1951-01-20 12:00:00 TS -16.6975 69.3000 main 1277 1273 O________OP___ jtwc_sh SH081951 -16.7000 69.3000 -1 -16.7000 69.3000 TC 35 -16.6925 69.3000 2 3 198
1951008S07074 1951 3 SI MM NOT_NAMED 1951-01-20 15:00:00 TS -16.8547 69.2500 main 1269 1256 P________PP___ SH081951 -16.8575 69.2500 -1 -16.8575 69.2500 TC 35 -16.8491 69.2500 2 3 197
1951008S07074 1951 3 SI MM NOT_NAMED 1951-01-20 18:00:00 TS -17.0000 69.2000 main 1256 1252 O________OO___ jtwc_sh SH081951 -17.0000 69.2000 -1 -17.0000 69.2000 TC 35 -17.0000 69.2000 2 3 201
1951008S07074 1951 3 SI MM NOT_NAMED 1951-01-20 21:00:00 TS -17.1107 69.1500 main 1242 1239 P________PP___ SH081951 -17.1000 69.1500 -1 -17.1000 69.1500 TC 35 -17.1322 69.1500 2 2 204
1951008S07074 1951 3 SI MM NOT_NAMED 1951-01-21 00:00:00 TS -17.2192 69.1000 main 1239 1232 O________OP___ jtwc_sh SH081951 -17.2000 69.1000 -1 -17.2000 69.1000 TC 35 -17.2575 69.1000 2 3 202
1951008S07074 1951 3 SI MM NOT_NAMED 1951-01-21 03:00:00 TS -17.3597 69.0500 main 1232 1218 P________PP___ SH081951 -17.3500 69.0500 -1 -17.3500 69.0500 TC 35 -17.3791 69.0500 2 3 198
1951008S07074 1951 3 SI MM NOT_NAMED 1951-01-21 06:00:00 TS -17.5000 69.0000 main 1218 1215 O________OO___ jtwc_sh SH081951 -17.5000 69.0000 -1 -17.5000 69.0000 TC 35 -17.5000 69.0000 2 3 200
1951008S07074 1951 3 SI MM NOT_NAMED 1951-01-21 09:00:00 TS -17.6110 68.9500 main 1205 1202 P________PP___ SH081951 -17.6000 68.9500 -1 -17.6000 68.9500 TC 35 -17.6331 68.9500 2 2 203
1951008S07074 1951 3 SI MM NOT_NAMED 1951-01-21 12:00:00 TS -17.7217 68.9000 main 1202 1196 O________OP___ jtwc_sh SH081951 -17.7000 68.9000 -1 -17.7000 68.9000 TC 35 -17.7650 68.9000 2 3 200
1951008S07074 1951 3 SI MM NOT_NAMED 1951-01-21 15:00:00 TS -17.8681 68.8500 main 1196 1183 P________PP___ SH081951 -17.8575 68.8500 -1 -17.8575 68.8500 TC 35 -17.8894 68.8500 2 3 198
1951008S07074 1951 3 SI MM NOT_NAMED 1951-01-21 18:00:00 TS -18.0000 68.8000 main 1183 1180 O________OO___ jtwc_sh SH081951 -18.0000 68.8000 -1 -18.0000 68.8000 TC 35 -18.0000 68.8000 2 2 206
1951008S07074 1951 3 SI MM NOT_NAMED 1951-01-21 21:00:00 TS -18.0627 68.7500 main 1170 1170 P________PP___ SH081951 -18.0575 68.7500 -1 -18.0575 68.7500 TC 35 -18.0731 68.7499 2 1 221
1951008S07074 1951 3 SI MM NOT_NAMED 1951-01-22 00:00:00 TS -18.1117 68.7000 main 1170 1167 O________OP___ jtwc_sh SH081951 -18.1000 68.7000 -1 -18.1000 68.7000 TC 35 -18.1350 68.6999 2 2 218
1951008S07074 1951 3 SI MM NOT_NAMED 1951-01-22 03:00:00 TS -18.1915 68.6500 main 1157 1155 P________PP___ SH081951 -18.1850 68.6500 -1 -18.1850 68.6500 TC 35 -18.2044 68.6499 2 2 208
1951008S07074 1951 3 SI MM NOT_NAMED 1951-01-22 06:00:00 TS -18.3000 68.6000 main 1155 1152 O________OO___ jtwc_sh SH081951 -18.3000 68.6000 -1 -18.3000 68.6000 TC 35 -18.3000 68.6000 2 3 201
1951008S07074 1951 3 SI MM NOT_NAMED 1951-01-22 09:00:00 TS -18.4415 68.5500 main 1152 1137 P________PP___ SH081951 -18.4350 68.5500 -1 -18.4350 68.5500 TC 35 -18.4544 68.5500 2 3 197
1951008S07074 1951 3 SI MM NOT_NAMED 1951-01-22 12:00:00 TS -18.6117 68.5000 main 1137 1133 O________OP___ jtwc_sh SH081951 -18.6000 68.5000 -1 -18.6000 68.5000 TC 35 -18.6350 68.5000 2 4 195
1951008S07074 1951 3 SI MM NOT_NAMED 1951-01-22 15:00:00 TS -18.8127 68.4500 main 1133 1119 P________PP___ SH081951 -18.8075 68.4500 -1 -18.8075 68.4500 TC 35 -18.8231 68.4500 2 4 194
1951008S07074 1951 3 SI MM NOT_NAMED 1951-01-22 18:00:00 TS -19.0000 68.4000 main 1119 1117 O________OO___ jtwc_sh SH081951 -19.0000 68.4000 -1 -19.0000 68.4000 TC 35 -19.0000 68.4000 2 3 197
1951008S07074 1951 3 SI MM NOT_NAMED 1951-01-22 21:00:00 TS -19.1154 68.3527 main 1117 1105 P________PP___ SH081951 -19.1075 68.3500 -1 -19.1075 68.3500 TC 35 -19.1312 68.3580 2 2 202
1951008S07074 1951 3 SI MM NOT_NAMED 1951-01-23 00:00:00 TS -19.2167 68.3049 main 1105 1103 O________OP___ jtwc_sh SH081951 -19.2000 68.3000 -1 -19.2000 68.3000 TC 35 -19.2500 68.3148 2 3 201
1951008S07074 1951 3 SI MM NOT_NAMED 1951-01-23 03:00:00 TS -19.3512 68.2597 main 1102 1090 P________PP___ SH081951 -19.3425 68.2575 -1 -19.3425 68.2575 TC 35 -19.3687 68.2642 2 3 198
1951008S07074 1951 3 SI MM NOT_NAMED 1951-01-23 06:00:00 TS -19.5000 68.2000 main 1090 1079 O________OO___ jtwc_sh SH081951 -19.5000 68.2000 -1 -19.5000 68.2000 TC 35 -19.5000 68.2000 2 3 206
1951008S07074 1951 3 SI MM NOT_NAMED 1951-01-23 09:00:00 TS -19.6499 68.1111 main 1079 1066 P________PP___ SH081951 -19.6425 68.1075 -1 -19.6425 68.1075 TC 35 -19.6647 68.1185 2 4 210
1951008S07074 1951 3 SI MM NOT_NAMED 1951-01-23 12:00:00 TS -19.8142 68.0075 main 1066 1054 O________OP___ jtwc_sh SH081951 -19.8000 68.0000 -1 -19.8000 68.0000 TC 35 -19.8425 68.0225 2 4 208
1951008S07074 1951 3 SI MM NOT_NAMED 1951-01-23 15:00:00 TS -20.0080 67.9051 main 1054 1043 P________PP___ SH081951 -20.0000 67.9000 -1 -20.0000 67.9000 TC 35 -20.0241 67.9153 2 4 207
1951008S07074 1951 3 SI MM NOT_NAMED 1951-01-23 18:00:00 TS -20.2000 67.8000 main 1043 1032 O________OO___ jtwc_sh SH081951 -20.2000 67.8000 -1 -20.2000 67.8000 TC 35 -20.2000 67.8000 2 4 204
1951008S07074 1951 3 SI MM NOT_NAMED 1951-01-23 21:00:00 TS -20.3555 67.7366 main 1031 1031 P________PP___ SH081951 -20.3575 67.7074 -1 -20.3575 67.7074 TC 35 -20.3516 67.7949 2 3 204
1951008S07074 1951 3 SI MM NOT_NAMED 1951-01-24 00:00:00 TS -20.4991 67.6553 main 1031 1021 O________OP___ jtwc_sh SH081951 -20.5000 67.6000 -1 -20.5000 67.6000 TC 35 -20.4973 67.7658 2 3 210
1951008S07074 1951 3 SI MM NOT_NAMED 1951-01-24 03:00:00 TS -20.6429 67.5644 main 1021 938 P________PP___ SH081951 -20.6421 67.5322 -1 -20.6421 67.5322 TC 35 -20.6444 67.6289 2 9 246
1951008S07074 1951 3 SI MM NOT_NAMED 1951-01-24 06:00:00 TS -20.8769 66.7385 reunion main 928 836 O____O___OO___ jtwc_sh SH081951 -20.8000 67.3000 -1 -21.8000 60.0000 99 9.90000 -20.8000 67.3000 TC 35 -20.8000 67.3000 2 17 254
1951008S07074 1951 3 SI MM NOT_NAMED 1951-01-24 09:00:00 TS -21.1124 65.7851 main 836 735 P____P___PP___ SH081951 -20.9996 66.7775 -1 -21.7788 59.9565 99 -20.9996 66.7775 TC 35 -21.0049 66.7145 2 19 257
1951008S07074 1951 3 SI MM NOT_NAMED 1951-01-24 12:00:00 TS -21.3140 64.7619 main 735 637 O____P___OP___ jtwc_sh SH081951 -21.2000 66.0000 -1 -21.7560 59.9028 99 -21.2000 66.0000 TC 35 -21.2104 65.9299 2 19 259
1951008S07074 1951 3 SI MM NOT_NAMED 1951-01-24 15:00:00 TS -21.4689 63.7424 main 627 556 P____P___PP___ SH081951 -21.3799 65.0677 -1 -21.7303 59.8288 99 -21.3799 65.0677 TC 35 -21.3855 65.0052 2 17 262
1951008S07074 1951 3 SI MM NOT_NAMED 1951-01-24 18:00:00 TS -21.5500 62.9311 main 546 469 O____P___OO___ jtwc_sh SH081951 -21.5000 64.0000 -1 -21.6999 59.7244 99 -21.5000 64.0000 TC 35 -21.5000 64.0000 2 15 266
1951008S07074 1951 3 SI MM NOT_NAMED 1951-01-24 21:00:00 TS -21.5648 62.0808 main 469 387 P____P___PP___ SH081951 -21.5373 62.8998 -1 -21.6634 59.5794 99 -21.5373 62.8998 TC 30 -21.5213 62.9441 2 16 271
1951008S07074 1951 3 SI MM NOT_NAMED 1951-01-25 00:00:00 TS -21.5245 61.2054 main 377 296 O____P___OP___ jtwc_sh SH081951 -21.5000 61.8000 -1 -21.6191 59.3837 99 -21.5000 61.8000 TC 25 -21.4788 61.8378 2 16 274
1951008S07074 1951 3 SI MM NOT_NAMED 1951-01-25 03:00:00 TS -21.4441 60.3386 main 287 221 P____P___PP___ SH081951 -21.4074 60.7322 -1 -21.5652 59.1273 99 -21.4074 60.7322 TC 25 -21.3964 60.7629 2 16 276
1951008S07074 1951 3 SI MM NOT_NAMED 1951-01-25 06:00:00 TS -21.3500 59.5500 reunion main 216 153 O____O___OO___ jtwc_sh SH081951 -21.3000 59.8000 -1 -21.5000 58.8000 99 9.90000 -21.3000 59.8000 TC 25 -21.3000 59.8000 1 13 277
1951008S07074 1951 3 SI MM NOT_NAMED 1951-01-25 09:00:00 TS -21.2903 58.9088 main 153 106 P____P___PP___ SH081951 -21.2491 59.0904 -1 -21.4222 58.3965 99 -21.2491 59.0904 TC 25 -21.2407 59.0578 1 11 276
1951008S07074 1951 3 SI MM NOT_NAMED 1951-01-25 12:00:00 TS -21.2274 58.3403 main 100 67 O____P___OP___ jtwc_sh SH081951 -21.2000 58.5000 -1 -21.3344 57.9299 99 -21.2000 58.5000 TC 25 -21.1754 58.4314 1 11 278
1951008S07074 1951 3 SI MM NOT_NAMED 1951-01-25 15:00:00 TS -21.1417 57.7706 main 67 55 P____P___PP___ SH081951 -21.1146 57.9001 -1 -21.2398 57.4182 99 -21.1146 57.9001 TC 30 -21.0977 57.8641 1 11 280
1951008S07074 1951 3 SI MM NOT_NAMED 1951-01-25 18:00:00 TS -21.0355 57.1947 main 56 56 O____P___OO___ jtwc_sh SH081951 -21.0000 57.3000 -1 -21.1422 56.8790 99 -21.0000 57.3000 TC 35 -21.0000 57.3000 2 12 282
1951008S07074 1951 3 SI MM NOT_NAMED 1951-01-25 21:00:00 TS -20.9040 56.5612 main 85 38 P____P___PP___ SH081951 -20.8573 56.6575 -1 -21.0452 56.3300 99 -20.8573 56.6575 TC 35 -20.8560 56.5996 2 12 283
1951008S07074 1951 3 SI MM NOT_NAMED 1951-01-26 00:00:00 TS -20.7617 55.9226 main 30 30 O____P___OP___ jtwc_sh SH081951 -20.7000 56.0000 -1 -20.9530 55.7889 99 -20.7000 56.0000 TC 35 -20.6936 55.9014 2 12 283
1951008S07074 1951 3 SI MM NOT_NAMED 1951-01-26 03:00:00 TS -20.6186 55.2839 main 44 44 P____P___PP___ SH081951 -20.5352 55.3049 -1 -20.8698 55.2731 99 -20.5352 55.3049 TC 50 -20.5343 55.2527 2 12 283
1951008S07074 1951 3 SI MM NOT_NAMED 1951-01-26 06:00:00 TS -20.5000 54.7250 reunion main 83 83 O____O___OO___ jtwc_sh SH081951 -20.4000 54.7000 -1 -20.8000 54.8000 99 9.90000 -20.4000 54.7000 TC 65 -20.4000 54.7000 4 9 282
1951008S07074 1951 3 SI MM NOT_NAMED 1951-01-26 09:00:00 TS -20.4264 54.3340 main 121 121 P____P___PP___ SH081951 -20.3347 54.2902 -1 -20.7249 54.4431 99 -20.3347 54.2902 TC 65 -20.3115 54.3123 4 7 281
1951008S07074 1951 3 SI MM NOT_NAMED 1951-01-26 12:00:00 TS -20.3780 54.0353 main 147 147 O____P___OP___ jtwc_sh SH081951 -20.3000 54.0000 -1 -20.6591 54.1228 99 -20.3000 54.0000 TC 65 -20.2531 54.0184 4 5 281
1951008S07074 1951 3 SI MM NOT_NAMED 1951-01-26 15:00:00 TS -20.3274 53.7778 main 170 170 P____P___PP___ SH081951 -20.2423 53.7575 -1 -20.6070 53.8309 99 -20.2423 53.7575 TC 65 -20.2181 53.7652 4 5 280
1951008S07074 1951 3 SI MM NOT_NAMED 1951-01-26 18:00:00 TS -20.2932 53.5147 main 198 198 O____P___OO___ jtwc_sh SH081951 -20.2000 53.5000 -1 -20.5729 53.5588 99 -20.2000 53.5000 TC 65 -20.2000 53.5000 4 6 275
1951008S07074 1951 3 SI MM NOT_NAMED 1951-01-26 21:00:00 TS -20.2789 53.1636 main 226 226 P____P___PP___ SH081951 -20.1926 53.1150 -1 -20.5609 53.2981 99 -20.1926 53.1150 TC 65 -20.1696 53.1262 4 7 271
1951008S07074 1951 3 SI MM NOT_NAMED 1951-01-27 00:00:00 TS -20.2827 52.7938 main 265 265 O____P___OP___ jtwc_sh SH081951 -20.2000 52.7000 -1 -20.5753 53.0404 99 -20.2000 52.7000 TC 65 -20.1554 52.7349 4 7 269
1951008S07074 1951 3 SI MM NOT_NAMED 1951-01-27 03:00:00 TS -20.2884 52.4458 main 304 304 P____P___PP___ SH081951 -20.1850 52.3274 -1 -20.6203 52.7772 99 -20.1850 52.3274 TC 65 -20.1634 52.3511 4 6 266
1951008S07074 1951 3 SI MM NOT_NAMED 1951-01-27 06:00:00 TS -20.3250 52.1250 reunion main 334 316 O____O___OO___ jtwc_sh SH081951 -20.2000 52.0000 -1 -20.7000 52.5000 99 9.90000 -20.2000 52.0000 TC 65 -20.2000 52.0000 4 6 258
1951008S07074 1951 3 SI MM NOT_NAMED 1951-01-27 09:00:00 TS -20.4096 51.8339 main 316 297 P____P___PP___ SH081951 -20.2849 51.7350 -1 -20.8100 52.1514 99 -20.2849 51.7350 TC 65 -20.2586 51.7141 4 6 249
1951008S07074 1951 3 SI MM NOT_NAMED 1951-01-27 12:00:00 TS -20.5254 51.5629 main 297 269 O____P___OP___ jtwc_sh SH081951 -20.4000 51.5000 -1 -20.9546 51.7893 99 -20.4000 51.5000 TC 65 -20.3470 51.4624 4 6 245
1951008S07074 1951 3 SI MM NOT_NAMED 1951-01-27 15:00:00 TS -20.6440 51.2874 main 269 246 P____P___PP___ SH081951 -20.4925 51.2499 -1 -21.1291 51.4200 99 -20.4925 51.2499 TC 65 -20.4619 51.2296 4 6 243
1951008S07074 1951 3 SI MM NOT_NAMED 1951-01-27 18:00:00 TS -20.7823 51.0126 main 246 231 O____P___OO___ jtwc_sh SH081951 -20.6000 51.0000 -1 -21.3293 51.0502 99 -20.6000 51.0000 TC 65 -20.6000 51.0000 4 6 240
1951008S07074 1951 3 SI MM NOT_NAMED 1951-01-27 21:00:00 TS -20.9353 50.7400 main 222 212 P____P___PP___ SH081951 -20.7350 50.7499 -1 -21.5507 50.6866 99 -20.7350 50.7499 TC 65 -20.7206 50.7736 4 6 237
1951008S07074 1951 3 SI MM NOT_NAMED 1951-01-28 00:00:00 TS -21.1140 50.4699 main 212 189 O____P___OP___ jtwc_sh SH081951 -20.9000 50.5000 -1 -21.7891 50.3358 99 -20.9000 50.5000 TC 65 -20.8669 50.5437 4 6 233
1951008S07074 1951 3 SI MM NOT_NAMED 1951-01-28 03:00:00 TS -21.3087 50.2065 main 189 165 P____P___PP___ SH081951 -21.0699 50.2648 -1 -22.0403 50.0046 99 -21.0699 50.2648 TC 65 -21.0548 50.2920 4 7 229
1951008S07074 1951 3 SI MM NOT_NAMED 1951-01-28 06:00:00 TS -21.5500 49.9250 reunion main 165 141 O____O___OO___ jtwc_sh SH081951 -21.3000 50.0000 -1 -22.3000 49.7000 99 9.90000 -21.3000 50.0000 TC 65 -21.3000 50.0000 4 8 225
1951008S07074 1951 3 SI MM NOT_NAMED 1951-01-28 09:00:00 TS -21.8556 49.6103 main 144 118 P____P___PP___ SH081951 -21.6199 49.6799 -1 -22.5728 49.4459 99 -21.6199 49.6799 TC 65 -21.6097 49.6354 4 9 223
1951008S07074 1951 3 SI MM NOT_NAMED 1951-01-28 12:00:00 TS -22.2093 49.2620 main 121 98 O____P___OP___ jtwc_sh SH081951 -22.0000 49.3000 -1 -22.8619 49.2175 99 -22.0000 49.3000 TC 65 -21.9754 49.2305 4 10 223
1951008S07074 1951 3 SI MM NOT_NAMED 1951-01-28 15:00:00 TS -22.5732 48.8836 main 102 71 P____P___PP___ SH081951 -22.3776 48.8573 -1 -23.1594 49.0096 99 -22.3776 48.8573 TC 65 -22.3784 48.8102 4 10 223
1951008S07074 1951 3 SI MM NOT_NAMED 1951-01-28 18:00:00 TS -22.9644 48.5043 main 72 51 O____P___OO___ jtwc_sh SH081951 -22.8000 48.4000 -1 -23.4577 48.8172 99 -22.8000 48.4000 TC 65 -22.8000 48.4000 4 11 219
1951008S07074 1951 3 SI MM NOT_NAMED 1951-01-28 21:00:00 TS -23.4078 48.1466 main 40 30 P____P___PP___ SH081951 -23.3074 47.9776 -1 -23.7487 48.6352 99 -23.3074 47.9776 TC 65 -23.2675 47.9960 4 11 216
1951008S07074 1951 3 SI MM NOT_NAMED 1951-01-29 00:00:00 TS -23.8412 47.8175 main 30 10 O____P___OP___ jtwc_sh SH081951 -23.8000 47.6000 -1 -24.0247 48.4584 99 -23.8000 47.6000 TC 65 -23.7402 47.6115 4 10 215
1951008S07074 1951 3 SI MM NOT_NAMED 1951-01-29 03:00:00 TS -24.2163 47.5194 main 10 0 P____P___PP___ SH081951 -24.2099 47.2624 -1 -24.2778 48.2817 99 -24.2099 47.2624 TC 65 -24.1677 47.2711 4 8 217
1951008S07074 1951 3 SI MM NOT_NAMED 1951-01-29 06:00:00 TS -24.5000 47.2750 reunion main 0 0 O____O___OO___ jtwc_sh SH081951 -24.5000 47.0000 -1 -24.5000 48.1000 99 9.90000 -24.5000 47.0000 TC 65 -24.5000 47.0000 4 6 222
1951008S07074 1951 3 SI MM NOT_NAMED 1951-01-29 09:00:00 TS -24.6657 47.0795 main 0 0 P____P___PP___ SH081951 -24.6449 46.8122 -1 -24.6940 47.8708 99 -24.6449 46.8122 TC 65 -24.6791 46.8227 4 4 230
1951008S07074 1951 3 SI MM NOT_NAMED 1951-01-29 12:00:00 TS -24.7560 46.9382 main 0 0 O____P___OP___ jtwc_sh SH081951 -24.7000 46.7000 -1 -24.8619 47.6371 99 -24.7000 46.7000 TC 65 -24.7619 46.7159 4 3 234
1951008S07074 1951 3 SI MM NOT_NAMED 1951-01-29 15:00:00 TS -24.8268 46.8312 main 0 0 P____P___PP___ SH081951 -24.7575 46.6350 -1 -25.0035 47.4035 99 -24.7575 46.6350 TC 65 -24.7887 46.6513 4 2 235
1951008S07074 1951 3 SI MM NOT_NAMED 1951-01-29 18:00:00 TS -24.8795 46.7437 main 0 0 O____P___OO___ jtwc_sh SH081951 -24.8000 46.6000 -1 -25.1181 47.1747 99 -24.8000 46.6000 TC 65 -24.8000 46.6000 4 2 235
1951008S07074 1951 3 SI MM NOT_NAMED 1951-01-29 21:00:00 TS -24.9437 46.6470 main 0 0 P____P___PP___ SH081951 -24.8500 46.5575 -1 -25.2055 46.9552 99 -24.8500 46.5575 TC 65 -24.8693 46.5178 4 2 236
1951008S07074 1951 3 SI MM NOT_NAMED 1951-01-30 00:00:00 TS -24.9988 46.5481 main 0 0 O____P___OP___ jtwc_sh SH081951 -24.9000 46.5000 -1 -25.2651 46.7499 99 -24.9000 46.5000 TC 65 -24.9300 46.4425 4 2 242
1951008S07074 1951 3 SI MM NOT_NAMED 1951-01-30 03:00:00 TS -25.0469 46.4336 main 0 0 P____P___PP___ SH081951 -24.9575 46.4000 -1 -25.2968 46.5633 99 -24.9575 46.4000 TC 65 -24.9756 46.3710 4 2 249
1951008S07074 1951 3 SI MM NOT_NAMED 1951-01-30 06:00:00 TS -25.0750 46.3250 reunion main 0 0 O____O___OO___ jtwc_sh SH081951 -25.0000 46.3000 -1 -25.3000 46.4000 99 9.90000 -25.0000 46.3000 TC 65 -25.0000 46.3000 4 2 260
1951008S07074 1951 3 SI MM NOT_NAMED 1951-01-30 09:00:00 TS -25.0754 46.2461 main 0 0 P____P___PP___ SH081951 -25.0150 46.2500 -1 -25.2751 46.2634 99 -25.0150 46.2500 TC 65 -24.9966 46.2209 4 1 281
1951008S07074 1951 3 SI MM NOT_NAMED 1951-01-30 12:00:00 TS -25.0494 46.1735 main 0 0 O____P___OP___ jtwc_sh SH081951 -25.0000 46.2000 -1 -25.2252 46.1514 99 -25.0000 46.2000 TC 65 -24.9725 46.1424 4 2 298
1951008S07074 1951 3 SI MM NOT_NAMED 1951-01-30 15:00:00 TS -24.9977 46.0820 main 0 0 P____P___PP___ SH081951 -24.9500 46.1000 -1 -25.1537 46.0605 99 -24.9500 46.1000 TC 65 -24.9372 46.0678 4 2 305
1951008S07074 1951 3 SI MM NOT_NAMED 1951-01-30 18:00:00 TS -24.9411 45.9968 main 0 0 O____P___OO___ jtwc_sh SH081951 -24.9000 46.0000 -1 -25.0644 45.9872 99 -24.9000 46.0000 TC 65 -24.9000 46.0000 4 2 304
1951008S07074 1951 3 SI MM NOT_NAMED 1951-01-30 21:00:00 TS -24.9140 45.9410 main 0 0 P____P___PP___ SH081951 -24.9000 45.9425 -1 -24.9608 45.9280 99 -24.9000 45.9425 TC 65 -24.8953 45.9511 4 2 25
1951008S07074 1951 3 SI MM NOT_NAMED 1951-01-31 00:00:00 TS -24.7618 46.0856 main 0 0 O____P___OP___ jtwc_sh SH081951 -24.9000 45.9000 -1 -24.8465 45.8794 99 -24.9000 45.9000 TC 65 -24.8874 45.9077 4 4 42
1951008S07074 1951 3 SI MM NOT_NAMED 1951-01-31 03:00:00 TS -24.5993 46.2499 main 0 0 P____P___PP___ SH081951 -24.8725 45.8575 -1 -24.7250 45.8379 99 -24.8725 45.8575 TC 65 -24.8609 45.8605 4 5 41
1951008S07074 1951 3 SI MM NOT_NAMED 1951-01-31 06:00:00 TS -24.4162 46.4189 reunion main 0 0 O____O___OO___ jtwc_sh SH081951 -24.8000 45.8000 -1 -24.6000 45.8000 99 9.90000 -24.8000 45.8000 TC 65 -24.8000 45.8000 4 5 36
1951008S07074 1951 3 SI MM NOT_NAMED 1951-01-31 09:00:00 TS -24.2015 46.5710 main 0 0 P________PP___ SH081951 -24.6650 45.7075 -1 99 -24.6650 45.7075 TC 50 -24.6859 45.7184 4 6 33
1951008S07074 1951 3 SI MM NOT_NAMED 1951-01-31 12:00:00 TS -23.9073 46.7765 main 0 0 O________OP___ jtwc_sh SH081951 -24.5000 45.6000 -1 99 -24.5000 45.6000 TC 35 -24.5375 45.6224 4 6 37
1951008S07074 1951 3 SI MM NOT_NAMED 1951-01-31 15:00:00 TS -23.6978 46.9897 main 0 0 P________PP___ SH081951 -24.3500 45.5000 -1 99 -24.3500 45.5000 TC 35 -24.3703 45.5153 4 5 43
1951008S07074 1951 3 SI MM NOT_NAMED 1951-01-31 18:00:00 TS -23.5401 47.1529 main 0 0 O________OO___ jtwc_sh SH081951 -24.2000 45.4000 -1 99 -24.2000 45.4000 TC 35 -24.2000 45.4000 2 3 34
1951008S07074 1951 3 SI MM NOT_NAMED 1951-01-31 21:00:00 TS -23.4218 47.1914 main 0 0 P________PP___ SH081951 -24.0500 45.3076 -1 99 -24.0500 45.3076 TC 35 -24.0537 45.3191 2 3 306
1951008S07074 1951 3 SI MM NOT_NAMED 1951-02-01 00:00:00 TS -23.3724 46.9037 reunion main 0 0 O________OP___ jtwc_sh SH081951 -23.9000 45.2000 -1 99 -23.9000 45.2000 TC 35 -23.9069 45.2256 2 7 277
1951008S07074 1951 3 SI MM NOT_NAMED 1951-02-01 03:00:00 TS -23.3368 46.4546 main 0 0 P________PP___ SH081951 -23.7499 45.0801 -1 99 -23.7499 45.0801 TC 35 -23.7567 45.0942 2 9 273
1951008S07074 1951 3 SI MM NOT_NAMED 1951-02-01 06:00:00 TS -23.3154 45.8826 main 0 0 O________OO___ jtwc_sh SH081951 -23.6000 44.9000 -1 -23.6000 44.9000 TC 35 -23.6000 44.9000 2 11 272
1951008S07074 1951 3 SI MM NOT_NAMED 1951-02-01 09:00:00 TS -23.3039 45.2647 main 0 0 P________PP___ SH081951 -23.4574 44.6376 -1 -23.4574 44.6376 TC 35 -23.4204 44.6061 2 12 270
1951008S07074 1951 3 SI MM NOT_NAMED 1951-02-01 12:00:00 TS -23.3088 44.6203 main 0 0 O________OP___ jtwc_sh SH081951 -23.3000 44.3000 -1 -23.3000 44.3000 TC 35 -23.2356 44.2518 2 12 269
1951008S07074 1951 3 SI MM NOT_NAMED 1951-02-01 15:00:00 TS -23.3251 43.9859 main 0 0 P________PP___ SH081951 -23.0926 43.8998 -1 -23.0926 43.8998 TC 35 -23.0579 43.8717 2 11 269
1951008S07074 1951 3 SI MM NOT_NAMED 1951-02-01 18:00:00 TS -23.3299 43.3969 main 20 20 O________OO___ jtwc_sh SH081951 -22.9000 43.5000 -1 -22.9000 43.5000 TC 35 -22.9000 43.5000 2 10 270
1951008S07074 1951 3 SI MM NOT_NAMED 1951-02-01 21:00:00 TS -23.3177 42.9059 main 71 71 P________PP___ SH081951 -22.7849 43.1852 -1 -22.7849 43.1852 TC 35 -22.7714 43.1631 2 9 269
1951008S07074 1951 3 SI MM NOT_NAMED 1951-02-02 00:00:00 TS -23.3501 42.4546 reunion main 112 112 O________OP___ jtwc_sh SH081951 -22.7000 42.9000 -1 -22.7000 42.9000 TC 35 -22.6674 42.8579 2 7 269
1951008S07074 1951 3 SI MM NOT_NAMED 1951-02-02 03:00:00 TS -23.3264 42.0973 main 144 144 P________PP___ SH081951 -22.6052 42.6048 -1 -22.6052 42.6048 TC 35 -22.5797 42.5736 2 9 246
1951008S07074 1951 3 SI MM NOT_NAMED 1951-02-02 06:00:00 TS -23.7301 41.5156 main 213 213 O________OO___ jtwc_sh SH081951 -22.5000 42.3000 -1 -22.5000 42.3000 TC 35 -22.5000 42.3000 2 21 221
1951008S07074 1951 3 SI MM NOT_NAMED 1951-02-02 09:00:00 NR -24.8940 40.6096 main 324 324 ______________ SH081951 -1 TC 2 18 216
1951008S07074 1951 3 SI MM NOT_NAMED 1951-02-02 12:00:00 NR -25.1440 40.3807 main 347 347 ______________ -1 2 6 214
1951008S07074 1951 3 SI MM NOT_NAMED 1951-02-02 15:00:00 NR -25.4013 40.2231 main 373 373 ______________ -1 2 6 205
1951008S07074 1951 3 SI MM NOT_NAMED 1951-02-02 18:00:00 NR -25.6643 40.1189 main 391 391 ______________ -1 6 196
1951008S07074 1951 3 SI MM NOT_NAMED 1951-02-02 21:00:00 NR -25.9311 40.0506 main 399 399 ______________ -1 5 191
1951008S07074 1951 3 SI MM NOT_NAMED 1951-02-03 00:00:00 NR -26.2000 40.0000 reunion main 421 ______________ -1 5 188

About IBTrACS Database

This database is a web-friendly format of International Best Track Archive for Climate Stewardship (IBTrACS), a global best track data archive curated by NOAA dating back to 1842.

Updated: 2021-12-03